Time;durP1;ratioP1;P1;durP2;ratioP2;P2;SDS_P1;SDS_P2;PMS_P1;PMS_P2;Temp;Humidity;BMP_temperature;BMP_pressure;BME280_temperature;BME280_humidity;BME280_pressure;Samples;Min_cycle;Max_cycle;Signal;HPM_P1;HPM_P2
2022/02/18 00:02:50;;;;;;;7.55;3.97;;;;;;;;;;4767659;30;20045;-79
2022/02/18 00:05:42;;;;;;;6.70;3.13;;;;;;;;;;4790187;29;20023;-80
2022/02/18 00:08:27;;;;;;;7.95;3.00;;;;;;;;;;4824629;29;20075;-79
2022/02/18 00:11:07;;;;;;;11.02;2.95;;;;;;;;;;4822420;29;20071;-79
2022/02/18 00:13:44;;;;;;;10.48;2.95;;;;;;;;;;4809437;29;20043;-79
2022/02/18 00:16:51;;;;;;;6.97;2.60;;;;;;;;;;4841569;29;20057;-79
2022/02/18 00:19:45;;;;;;;7.93;2.53;;;;;;;;;;4863124;29;20045;-80
2022/02/18 00:22:30;;;;;;;6.63;3.03;;;;;;;;;;4868111;29;20014;-80
2022/02/18 00:25:19;;;;;;;5.18;2.70;;;;;;;;;;4896056;29;20068;-80
2022/02/18 00:30:50;;;;;;;8.18;2.53;;;;;;;;;;4951425;26;20050;-80
2022/02/18 00:33:37;;;;;;;5.95;2.58;;;;;;;;;;5000996;28;20026;-80
2022/02/18 00:36:14;;;;;;;6.80;2.28;;;;;;;;;;5001185;28;20038;-79
2022/02/18 00:38:52;;;;;;;4.88;2.25;;;;;;;;;;5013232;28;20038;-77
2022/02/18 00:41:20;;;;;;;6.17;2.50;;;;;;;;;;4995751;28;20033;-79
2022/02/18 00:43:48;;;;;;;7.95;2.30;;;;;;;;;;5008256;28;20078;-79
2022/02/18 00:46:19;;;;;;;4.75;2.42;;;;;;;;;;5016874;28;20045;-80
2022/02/18 00:49:01;;;;;;;5.30;2.40;;;;;;;;;;5002651;28;20063;-79
2022/02/18 00:51:57;;;;;;;7.88;2.60;;;;;;;;;;5013491;28;20026;-78
2022/02/18 00:54:28;;;;;;;6.57;2.60;;;;;;;;;;5001203;28;20039;-79
2022/02/18 00:57:20;;;;;;;8.70;2.55;;;;;;;;;;5017996;28;20034;-80
2022/02/18 01:00:27;;;;;;;4.38;2.42;;;;;;;;;;4902740;29;20040;-79
2022/02/18 01:03:11;;;;;;;7.78;2.42;;;;;;;;;;4884291;29;20040;-80
2022/02/18 01:05:50;;;;;;;6.07;2.42;;;;;;;;;;4883254;29;20037;-80
2022/02/18 01:08:39;;;;;;;4.90;2.25;;;;;;;;;;4811705;30;20024;-80
2022/02/18 01:11:10;;;;;;;7.97;2.45;;;;;;;;;;4808837;29;20043;-80
2022/02/18 01:13:57;;;;;;;8.65;2.45;;;;;;;;;;4797570;29;20031;-80
2022/02/18 01:16:50;;;;;;;8.38;2.75;;;;;;;;;;4811599;29;20043;-84
2022/02/18 01:19:44;;;;;;;5.90;2.35;;;;;;;;;;4792030;29;20093;-79
2022/02/18 01:25:46;;;;;;;6.28;2.30;;;;;;;;;;4795735;30;20046;-80
2022/02/18 01:28:41;;;;;;;7.38;2.40;;;;;;;;;;4774451;29;20044;-79
2022/02/18 01:31:14;;;;;;;5.30;2.30;;;;;;;;;;4749319;30;20152;-79
2022/02/18 01:34:07;;;;;;;7.22;2.60;;;;;;;;;;4752826;30;20064;-79
2022/02/18 01:36:34;;;;;;;;;;;;;;;;;;4774555;29;20064;-78
2022/02/18 01:42:07;;;;;;;7.68;2.80;;;;;;;;;;4863857;29;20037;-79
2022/02/18 01:44:56;;;;;;;7.63;2.35;;;;;;;;;;4850705;29;20052;-81
2022/02/18 01:47:25;;;;;;;7.63;2.38;;;;;;;;;;4847057;29;20523;-79
2022/02/18 01:49:58;;;;;;;11.00;3.20;;;;;;;;;;4849448;29;20038;-79
2022/02/18 01:55:57;;;;;;;5.78;2.58;;;;;;;;;;4825434;29;20046;-79
2022/02/18 01:59:11;;;;;;;6.03;2.60;;;;;;;;;;4794648;29;20095;-79
2022/02/18 02:01:59;;;;;;;8.57;3.60;;;;;;;;;;4792767;29;20189;-80
2022/02/18 02:04:53;;;;;;;12.23;2.97;;;;;;;;;;4753953;29;20267;-80
2022/02/18 02:07:25;;;;;;;7.65;2.92;;;;;;;;;;4826903;29;20023;-80
2022/02/18 02:10:21;;;;;;;7.63;3.10;;;;;;;;;;4828422;29;20128;-79
2022/02/18 02:13:10;;;;;;;11.45;2.80;;;;;;;;;;4847704;29;20052;-80
2022/02/18 02:15:58;;;;;;;9.65;3.38;;;;;;;;;;4897143;29;20033;-79
2022/02/18 02:18:41;;;;;;;12.27;4.07;;;;;;;;;;4883148;29;20199;-81
2022/02/18 02:21:31;;;;;;;8.30;2.80;;;;;;;;;;4883570;29;20048;-80
2022/02/18 02:24:03;;;;;;;11.15;3.90;;;;;;;;;;4863550;29;20042;-79
2022/02/18 02:26:54;;;;;;;6.97;2.90;;;;;;;;;;4833984;29;20042;-79
2022/02/18 02:29:40;;;;;;;8.25;2.90;;;;;;;;;;4902181;29;20043;-80
2022/02/18 02:32:35;;;;;;;11.32;3.13;;;;;;;;;;4955189;28;20035;-79
2022/02/18 02:35:08;;;;;;;8.70;3.33;;;;;;;;;;4907661;29;20052;-78
2022/02/18 02:37:45;;;;;;;17.85;6.05;;;;;;;;;;4910971;29;20056;-78
2022/02/18 02:40:52;;;;;;;13.52;4.72;;;;;;;;;;4918530;29;20027;-80
2022/02/18 02:43:38;;;;;;;10.10;3.97;;;;;;;;;;4880657;29;20036;-79
2022/02/18 02:46:34;;;;;;;8.75;3.40;;;;;;;;;;4869379;29;20105;-79
2022/02/18 02:49:11;;;;;;;8.25;2.85;;;;;;;;;;4867704;29;20078;-80
2022/02/18 02:51:41;;;;;;;7.53;2.72;;;;;;;;;;4845589;29;20050;-79
2022/02/18 02:54:28;;;;;;;11.95;4.10;;;;;;;;;;4844888;29;20073;-79
2022/02/18 02:57:30;;;;;;;8.00;2.85;;;;;;;;;;4828083;29;20038;-80
2022/02/18 03:00:35;;;;;;;7.73;2.93;;;;;;;;;;4845204;29;20017;-79
2022/02/18 03:03:32;;;;;;;8.80;3.10;;;;;;;;;;4856700;29;20295;-79
2022/02/18 03:06:31;;;;;;;9.30;3.03;;;;;;;;;;4855485;29;20050;-80
2022/02/18 03:12:30;;;;;;;8.32;2.95;;;;;;;;;;4824932;29;20026;-81
2022/02/18 03:15:31;;;;;;;7.35;2.70;;;;;;;;;;4788229;29;20028;-79
2022/02/18 03:18:36;;;;;;;5.88;2.88;;;;;;;;;;4790601;29;20050;-79
2022/02/18 03:21:13;;;;;;;8.40;2.70;;;;;;;;;;4789949;29;20060;-78
2022/02/18 03:23:55;;;;;;;9.30;2.90;;;;;;;;;;4807803;30;20046;-78
2022/02/18 03:26:28;;;;;;;11.55;2.58;;;;;;;;;;4808740;29;20046;-79
2022/02/18 03:29:04;;;;;;;11.57;3.05;;;;;;;;;;4825376;29;20043;-79
2022/02/18 03:31:44;;;;;;;8.15;2.65;;;;;;;;;;4824057;29;20054;-78
2022/02/18 03:34:56;;;;;;;9.02;2.90;;;;;;;;;;4830194;29;20041;-79
2022/02/18 03:38:08;;;;;;;5.57;2.60;;;;;;;;;;4830644;29;20081;-79
2022/02/18 03:40:49;;;;;;;7.20;2.70;;;;;;;;;;4885712;29;20033;-79
2022/02/18 03:43:24;;;;;;;5.40;2.72;;;;;;;;;;4888756;29;20036;-78
2022/02/18 03:46:32;;;;;;;7.85;3.15;;;;;;;;;;4915225;29;20056;-79
2022/02/18 03:49:05;;;;;;;5.57;2.65;;;;;;;;;;4905062;29;20044;-78
2022/02/18 03:51:59;;;;;;;7.63;2.83;;;;;;;;;;4940758;28;20052;-79
2022/02/18 03:54:49;;;;;;;10.02;2.90;;;;;;;;;;4961066;28;20016;-80
2022/02/18 03:57:29;;;;;;;7.65;2.90;;;;;;;;;;4898819;28;20086;-79
2022/02/18 04:00:09;;;;;;;6.25;2.92;;;;;;;;;;4958868;28;20020;-79
2022/02/18 04:03:15;;;;;;;6.50;3.08;;;;;;;;;;4962490;29;20047;-79
2022/02/18 04:05:49;;;;;;;5.32;2.80;;;;;;;;;;4980062;28;20091;-79
2022/02/18 04:08:32;;;;;;;6.57;2.95;;;;;;;;;;4975934;29;20032;-79
2022/02/18 04:11:13;;;;;;;9.68;3.00;;;;;;;;;;4957071;29;20043;-79
2022/02/18 04:13:55;;;;;;;8.75;3.25;;;;;;;;;;4941587;29;20058;-79
2022/02/18 04:17:08;;;;;;;7.90;2.67;;;;;;;;;;4915118;29;20024;-79
2022/02/18 04:20:09;;;;;;;11.82;3.47;;;;;;;;;;4940278;29;20016;-79
2022/02/18 04:22:55;;;;;;;7.35;2.60;;;;;;;;;;4941707;28;20024;-80
2022/02/18 04:28:36;;;;;;;6.63;2.70;;;;;;;;;;4939041;29;20084;-78
2022/02/18 04:31:25;;;;;;;11.02;2.75;;;;;;;;;;4940832;28;20039;-78
2022/02/18 04:34:01;;;;;;;8.52;2.50;;;;;;;;;;4919833;29;20092;-80
2022/02/18 04:40:36;;;;;;;7.07;3.08;;;;;;;;;;4925317;29;20059;-78
2022/02/18 04:46:08;;;;;;;9.52;2.70;;;;;;;;;;4921620;29;20059;-80
2022/02/18 04:49:24;;;;;;;11.00;3.85;;;;;;;;;;4895370;29;20029;-79
2022/02/18 04:52:50;;;;;;;7.72;3.08;;;;;;;;;;4882455;29;20057;-79
2022/02/18 04:55:44;;;;;;;9.35;2.92;;;;;;;;;;4847254;29;20041;-79
2022/02/18 04:59:02;;;;;;;7.07;2.65;;;;;;;;;;4846183;29;20098;-79
2022/02/18 05:01:39;;;;;;;9.45;2.72;;;;;;;;;;4830599;29;20027;-79
2022/02/18 05:04:44;;;;;;;7.80;2.65;;;;;;;;;;4829248;29;20079;-79
2022/02/18 05:08:06;;;;;;;5.78;2.63;;;;;;;;;;4827728;29;20456;-79
2022/02/18 05:10:35;;;;;;;14.25;3.30;;;;;;;;;;4815785;29;20053;-79
2022/02/18 05:13:18;;;;;;;6.60;2.72;;;;;;;;;;4827426;29;20125;-80
2022/02/18 05:16:01;;;;;;;8.48;2.88;;;;;;;;;;4784818;29;20023;-79
2022/02/18 05:21:45;;;;;;;9.40;3.05;;;;;;;;;;5341553;23;20065;-79
2022/02/18 05:24:39;;;;;;;7.75;2.75;;;;;;;;;;5033618;28;20065;-80
2022/02/18 05:27:49;;;;;;;15.15;4.07;;;;;;;;;;4962065;28;20035;-78
2022/02/18 05:30:51;;;;;;;9.38;3.28;;;;;;;;;;4976391;29;20039;-79
2022/02/18 05:33:29;;;;;;;12.38;3.42;;;;;;;;;;4961862;29;20039;-78
2022/02/18 05:36:04;;;;;;;9.70;3.53;;;;;;;;;;4963052;28;20015;-78
2022/02/18 05:38:35;;;;;;;11.52;3.28;;;;;;;;;;4954981;29;20065;-76
2022/02/18 05:41:01;;;;;;;11.27;3.28;;;;;;;;;;4954328;29;20106;-76
2022/02/18 05:43:27;;;;;;;10.02;3.47;;;;;;;;;;4956526;29;20086;-75
2022/02/18 05:45:53;;;;;;;8.10;3.00;;;;;;;;;;4958120;29;20059;-77
2022/02/18 05:48:20;;;;;;;12.73;3.25;;;;;;;;;;4957271;29;20031;-73
2022/02/18 05:50:47;;;;;;;9.07;3.20;;;;;;;;;;4961210;28;20047;-75
2022/02/18 05:53:13;;;;;;;10.73;3.28;;;;;;;;;;4994745;28;20099;-75
2022/02/18 05:55:43;;;;;;;15.55;3.95;;;;;;;;;;4997877;28;20034;-76
2022/02/18 06:01:00;;;;;;;11.25;3.50;;;;;;;;;;5160587;23;20054;-78
2022/02/18 06:03:27;;;;;;;9.10;3.22;;;;;;;;;;5005151;28;20030;-76
2022/02/18 06:05:59;;;;;;;12.70;3.70;;;;;;;;;;4997752;28;20381;-75
2022/02/18 06:08:25;;;;;;;14.20;3.20;;;;;;;;;;4987336;28;20030;-77
2022/02/18 06:10:59;;;;;;;7.47;3.10;;;;;;;;;;5010025;28;20022;-74
2022/02/18 06:13:26;;;;;;;12.00;3.47;;;;;;;;;;5001068;28;20030;-78
2022/02/18 06:15:52;;;;;;;8.18;2.92;;;;;;;;;;4990992;28;20061;-75
2022/02/18 06:18:18;;;;;;;9.20;3.20;;;;;;;;;;5004942;28;20035;-76
2022/02/18 06:20:44;;;;;;;12.35;3.67;;;;;;;;;;4962241;28;20030;-75
2022/02/18 06:23:10;;;;;;;9.82;3.53;;;;;;;;;;4967393;28;20035;-75
2022/02/18 06:25:36;;;;;;;6.40;2.70;;;;;;;;;;4973132;28;20031;-74
2022/02/18 06:28:06;;;;;;;10.65;3.30;;;;;;;;;;4967872;28;20035;-75
2022/02/18 06:30:32;;;;;;;11.20;3.40;;;;;;;;;;4973026;28;20038;-74
2022/02/18 06:32:58;;;;;;;16.80;4.57;;;;;;;;;;4979937;28;20085;-75
2022/02/18 06:35:26;;;;;;;10.95;4.15;;;;;;;;;;4958197;28;20050;-77
2022/02/18 06:37:53;;;;;;;14.55;4.18;;;;;;;;;;4987132;28;20034;-73
2022/02/18 06:40:19;;;;;;;12.93;4.53;;;;;;;;;;4971604;28;20030;-75
2022/02/18 06:42:49;;;;;;;15.80;5.15;;;;;;;;;;4947275;28;20022;-75
2022/02/18 06:45:18;;;;;;;16.00;4.05;;;;;;;;;;4961385;28;20006;-75
2022/02/18 06:47:47;;;;;;;10.00;4.88;;;;;;;;;;4986237;28;20106;-76
2022/02/18 06:50:14;;;;;;;24.65;11.82;;;;;;;;;;4966552;28;20031;-76
2022/02/18 06:52:40;;;;;;;16.88;8.25;;;;;;;;;;4981246;28;20019;-76
2022/02/18 06:55:07;;;;;;;15.55;5.57;;;;;;;;;;4966219;28;20026;-84
2022/02/18 06:57:37;;;;;;;8.25;4.18;;;;;;;;;;4956836;28;20035;-86
2022/02/18 07:00:03;;;;;;;10.68;4.20;;;;;;;;;;4946236;28;20039;-89
2022/02/18 07:02:29;;;;;;;11.77;4.95;;;;;;;;;;4951877;28;20036;-82
2022/02/18 07:04:55;;;;;;;9.40;4.82;;;;;;;;;;4936823;28;20119;-84
2022/02/18 07:07:21;;;;;;;11.82;5.00;;;;;;;;;;4955649;28;20026;-84
2022/02/18 07:09:47;;;;;;;15.85;7.00;;;;;;;;;;4945422;28;20090;-78
2022/02/18 07:12:13;;;;;;;16.60;8.48;;;;;;;;;;4951505;28;20054;-82
2022/02/18 07:14:40;;;;;;;11.38;4.38;;;;;;;;;;4940947;28;20043;-81
2022/02/18 07:17:06;;;;;;;14.93;5.10;;;;;;;;;;4953466;28;20107;-85
2022/02/18 07:19:33;;;;;;;11.98;4.72;;;;;;;;;;4944859;28;20042;-81
2022/02/18 07:21:59;;;;;;;11.77;4.78;;;;;;;;;;4952464;28;20515;-94
2022/02/18 07:24:25;;;;;;;14.90;6.95;;;;;;;;;;4945201;28;20042;-76
2022/02/18 07:26:51;;;;;;;12.82;5.13;;;;;;;;;;4958099;28;20024;-79
2022/02/18 07:29:17;;;;;;;13.68;6.78;;;;;;;;;;4950367;29;20039;-82
2022/02/18 07:31:43;;;;;;;12.15;4.90;;;;;;;;;;4943759;28;20032;-74
2022/02/18 07:34:10;;;;;;;10.50;4.65;;;;;;;;;;4944288;28;20039;-81
2022/02/18 07:36:36;;;;;;;12.60;6.45;;;;;;;;;;4951637;28;20030;-86
2022/02/18 07:39:02;;;;;;;15.55;8.80;;;;;;;;;;4943665;28;20074;-81
2022/02/18 07:41:28;;;;;;;15.70;7.95;;;;;;;;;;4942864;28;20027;-82
2022/02/18 07:43:54;;;;;;;12.38;7.45;;;;;;;;;;4952484;28;20067;-82
2022/02/18 07:46:20;;;;;;;14.27;4.85;;;;;;;;;;4949088;28;20015;-77
2022/02/18 07:48:46;;;;;;;20.50;11.13;;;;;;;;;;4953833;28;20030;-82
2022/02/18 07:51:13;;;;;;;15.07;8.32;;;;;;;;;;4950837;28;20039;-79
2022/02/18 07:53:40;;;;;;;14.77;5.88;;;;;;;;;;4949211;28;20042;-80
2022/02/18 07:56:07;;;;;;;12.25;4.60;;;;;;;;;;4960481;28;20119;-87
2022/02/18 07:58:34;;;;;;;15.30;6.70;;;;;;;;;;4960305;28;20393;-75
2022/02/18 08:01:00;;;;;;;13.15;5.57;;;;;;;;;;4941160;28;20071;-83
2022/02/18 08:03:26;;;;;;;20.13;8.02;;;;;;;;;;4942285;28;20019;-81
2022/02/18 08:05:53;;;;;;;15.93;7.32;;;;;;;;;;4945406;28;20038;-78
2022/02/18 08:08:20;;;;;;;14.82;5.30;;;;;;;;;;4949158;28;20055;-80
2022/02/18 08:10:47;;;;;;;12.77;5.30;;;;;;;;;;4950452;28;20038;-80
2022/02/18 08:13:13;;;;;;;12.57;5.05;;;;;;;;;;4948917;28;20031;-81
2022/02/18 08:15:39;;;;;;;12.57;4.38;;;;;;;;;;4956266;28;20038;-83
2022/02/18 08:18:05;;;;;;;13.10;6.68;;;;;;;;;;4949672;28;20214;-79
2022/02/18 08:20:31;;;;;;;15.43;7.10;;;;;;;;;;4944320;28;20081;-84
2022/02/18 08:22:57;;;;;;;14.18;4.97;;;;;;;;;;4951948;28;20032;-80
2022/02/18 08:25:23;;;;;;;15.88;4.30;;;;;;;;;;4959589;28;20106;-75
2022/02/18 08:27:50;;;;;;;12.77;5.18;;;;;;;;;;4959805;28;20036;-79
2022/02/18 08:30:16;;;;;;;12.43;5.43;;;;;;;;;;4960585;28;20094;-77
2022/02/18 08:32:42;;;;;;;10.82;4.30;;;;;;;;;;4946971;28;20028;-79
2022/02/18 08:35:08;;;;;;;11.25;5.60;;;;;;;;;;4950561;28;20027;-80
2022/02/18 08:37:35;;;;;;;11.10;4.40;;;;;;;;;;4957804;28;20035;-80
2022/02/18 08:40:01;;;;;;;10.27;3.97;;;;;;;;;;4951290;28;20118;-79
2022/02/18 08:42:27;;;;;;;14.88;4.55;;;;;;;;;;4953455;28;20205;-80
2022/02/18 08:44:53;;;;;;;11.85;4.03;;;;;;;;;;4949745;28;20020;-80
2022/02/18 08:47:19;;;;;;;12.38;5.97;;;;;;;;;;4950860;28;20027;-83
2022/02/18 08:49:45;;;;;;;12.10;5.90;;;;;;;;;;4954568;28;20038;-79
2022/02/18 08:52:11;;;;;;;10.98;4.75;;;;;;;;;;4950129;28;20032;-79
2022/02/18 08:54:39;;;;;;;8.43;4.28;;;;;;;;;;4939963;28;20528;-79
2022/02/18 08:57:05;;;;;;;8.18;3.92;;;;;;;;;;4947237;28;20042;-77
2022/02/18 08:59:31;;;;;;;10.32;3.30;;;;;;;;;;4959584;28;20041;-80
2022/02/18 09:01:59;;;;;;;9.70;3.55;;;;;;;;;;4975481;28;20105;-76
2022/02/18 09:04:27;;;;;;;13.00;3.80;;;;;;;;;;4970699;28;20025;-79
2022/02/18 09:06:53;;;;;;;11.68;3.58;;;;;;;;;;4970166;28;20524;-76
2022/02/18 09:09:22;;;;;;;10.20;3.75;;;;;;;;;;4959737;28;20037;-79
2022/02/18 09:11:50;;;;;;;15.38;3.67;;;;;;;;;;4956562;28;20047;-76
2022/02/18 09:14:24;;;;;;;10.20;3.15;;;;;;;;;;4937182;28;20012;-78
2022/02/18 09:16:52;;;;;;;9.23;3.05;;;;;;;;;;4972748;28;20046;-77
2022/02/18 09:19:21;;;;;;;8.93;3.40;;;;;;;;;;4967704;29;20071;-76
2022/02/18 09:22:01;;;;;;;9.18;4.28;;;;;;;;;;4952053;28;20055;-77
2022/02/18 09:24:32;;;;;;;10.43;4.82;;;;;;;;;;4951774;28;20035;-76
2022/02/18 09:26:58;;;;;;;17.88;8.23;;;;;;;;;;4962708;28;20063;-75
2022/02/18 09:29:44;;;;;;;9.63;4.28;;;;;;;;;;4958092;28;20040;-78
2022/02/18 09:32:10;;;;;;;10.13;4.70;;;;;;;;;;4946341;29;20134;-77
2022/02/18 09:34:37;;;;;;;17.83;7.35;;;;;;;;;;4937227;29;20047;-77
2022/02/18 09:37:14;;;;;;;8.73;3.47;;;;;;;;;;4933374;29;20032;-76
2022/02/18 09:39:44;;;;;;;5.97;2.55;;;;;;;;;;4958360;28;20039;-78
2022/02/18 09:42:12;;;;;;;7.72;3.40;;;;;;;;;;4939357;28;20043;-76
2022/02/18 09:44:38;;;;;;;11.52;3.13;;;;;;;;;;4942657;28;20069;-76
2022/02/18 09:47:04;;;;;;;10.43;3.60;;;;;;;;;;4946621;29;20049;-78
2022/02/18 09:49:32;;;;;;;7.07;3.47;;;;;;;;;;4957475;28;20031;-77
2022/02/18 09:51:58;;;;;;;8.98;5.10;;;;;;;;;;4946828;28;20042;-77
2022/02/18 09:54:26;;;;;;;14.45;6.80;;;;;;;;;;4960369;28;20044;-80
2022/02/18 09:56:53;;;;;;;18.27;8.73;;;;;;;;;;4974467;28;20088;-75
2022/02/18 09:59:19;;;;;;;38.13;13.73;;;;;;;;;;4988126;28;20034;-74
2022/02/18 10:01:47;;;;;;;9.60;3.72;;;;;;;;;;4970874;28;20038;-73
2022/02/18 10:04:14;;;;;;;11.63;3.75;;;;;;;;;;4943293;28;20035;-73
2022/02/18 10:06:41;;;;;;;10.75;4.03;;;;;;;;;;4986388;28;20491;-73
2022/02/18 10:09:07;;;;;;;9.90;4.57;;;;;;;;;;4981408;28;20040;-73
2022/02/18 10:11:50;;;;;;;8.95;2.80;;;;;;;;;;4967185;28;20113;-73
2022/02/18 10:14:17;;;;;;;6.72;2.95;;;;;;;;;;4969815;28;20024;-73
2022/02/18 10:16:43;;;;;;;7.72;3.33;;;;;;;;;;4940113;28;20073;-76
2022/02/18 10:19:14;;;;;;;7.55;3.03;;;;;;;;;;4969207;28;20373;-73
2022/02/18 10:21:40;;;;;;;9.93;3.20;;;;;;;;;;4973012;28;20127;-74
2022/02/18 10:24:12;;;;;;;7.22;3.05;;;;;;;;;;4946693;28;20019;-74
2022/02/18 10:26:46;;;;;;;6.43;2.55;;;;;;;;;;4966518;28;20037;-73
2022/02/18 10:29:25;;;;;;;6.15;3.03;;;;;;;;;;4954819;28;20497;-74
2022/02/18 10:32:06;;;;;;;6.38;2.70;;;;;;;;;;4973023;28;20030;-73
2022/02/18 10:34:49;;;;;;;10.10;3.53;;;;;;;;;;4969529;28;20105;-74
2022/02/18 10:37:15;;;;;;;10.83;2.83;;;;;;;;;;4974325;28;20435;-74
2022/02/18 10:39:41;;;;;;;8.13;2.92;;;;;;;;;;4972874;28;20058;-74
2022/02/18 10:42:08;;;;;;;6.15;2.50;;;;;;;;;;4975315;28;20044;-73
2022/02/18 10:44:34;;;;;;;5.20;2.47;;;;;;;;;;4965752;28;20417;-73
2022/02/18 10:47:05;;;;;;;5.10;2.38;;;;;;;;;;4970258;28;20113;-73
2022/02/18 10:49:33;;;;;;;5.97;2.67;;;;;;;;;;4972263;28;20082;-74
2022/02/18 10:52:11;;;;;;;10.48;3.10;;;;;;;;;;4966600;28;20373;-73
2022/02/18 10:54:37;;;;;;;9.82;3.08;;;;;;;;;;4964015;28;20036;-74
2022/02/18 10:57:17;;;;;;;6.10;3.03;;;;;;;;;;4974225;28;20031;-72
2022/02/18 10:59:43;;;;;;;7.88;3.47;;;;;;;;;;4966707;28;20058;-74
2022/02/18 11:02:09;;;;;;;6.93;2.83;;;;;;;;;;4966041;28;20058;-75
2022/02/18 11:04:36;;;;;;;8.90;4.40;;;;;;;;;;4966797;28;20030;-74
2022/02/18 11:07:12;;;;;;;9.52;5.20;;;;;;;;;;4968027;28;20186;-78
2022/02/18 11:09:46;;;;;;;10.18;3.05;;;;;;;;;;4973367;28;20151;-74
2022/02/18 11:12:13;;;;;;;7.70;2.85;;;;;;;;;;4970700;28;20030;-73
2022/02/18 11:14:41;;;;;;;12.77;4.57;;;;;;;;;;4972606;28;20477;-75
2022/02/18 11:17:08;;;;;;;8.90;3.60;;;;;;;;;;4980066;28;20042;-74
2022/02/18 11:19:35;;;;;;;12.73;5.38;;;;;;;;;;4978590;28;20062;-74
2022/02/18 11:22:04;;;;;;;6.65;2.95;;;;;;;;;;4969528;28;20034;-72
2022/02/18 11:24:31;;;;;;;6.72;2.55;;;;;;;;;;4965900;28;20050;-77
2022/02/18 11:26:59;;;;;;;10.45;4.10;;;;;;;;;;4965566;28;20065;-76
2022/02/18 11:29:26;;;;;;;10.25;3.30;;;;;;;;;;4974099;28;20019;-76
2022/02/18 11:31:55;;;;;;;8.25;2.80;;;;;;;;;;4965186;28;20031;-77
2022/02/18 11:34:24;;;;;;;11.90;3.50;;;;;;;;;;4971206;28;20457;-73
2022/02/18 11:36:52;;;;;;;7.55;2.65;;;;;;;;;;4964573;28;20042;-74
2022/02/18 11:39:27;;;;;;;7.65;3.00;;;;;;;;;;4976132;28;20027;-75
2022/02/18 11:42:16;;;;;;;7.60;2.80;;;;;;;;;;4974921;28;20019;-74
2022/02/18 11:44:43;;;;;;;6.63;3.00;;;;;;;;;;4964431;28;20388;-73
2022/02/18 11:47:15;;;;;;;10.45;3.40;;;;;;;;;;4965936;28;20042;-73
2022/02/18 11:49:41;;;;;;;7.95;2.95;;;;;;;;;;4962824;28;20031;-74
2022/02/18 11:52:09;;;;;;;5.85;2.50;;;;;;;;;;4969595;28;20042;-74
2022/02/18 11:54:36;;;;;;;5.65;2.58;;;;;;;;;;4961967;28;20031;-72
2022/02/18 11:57:04;;;;;;;12.48;3.72;;;;;;;;;;4983773;28;20045;-74
2022/02/18 11:59:49;;;;;;;10.90;3.30;;;;;;;;;;4969006;28;20071;-72
2022/02/18 12:02:15;;;;;;;7.50;2.83;;;;;;;;;;4976427;28;20081;-71
2022/02/18 12:04:41;;;;;;;10.18;2.53;;;;;;;;;;4977588;28;20054;-72
2022/02/18 12:07:26;;;;;;;5.80;2.42;;;;;;;;;;4989554;28;20109;-72
2022/02/18 12:09:53;;;;;;;12.80;3.17;;;;;;;;;;4977166;28;20085;-73
2022/02/18 12:12:22;;;;;;;9.30;3.80;;;;;;;;;;4981379;28;20023;-75
2022/02/18 12:14:49;;;;;;;8.52;3.10;;;;;;;;;;4973228;28;20114;-72
2022/02/18 12:17:15;;;;;;;13.18;4.97;;;;;;;;;;4964588;28;20108;-71
2022/02/18 12:19:41;;;;;;;18.80;5.53;;;;;;;;;;4960777;28;20028;-72
2022/02/18 12:22:07;;;;;;;9.65;3.40;;;;;;;;;;4960356;28;20042;-71
2022/02/18 12:24:33;;;;;;;8.98;3.28;;;;;;;;;;4973450;28;20081;-72
2022/02/18 12:27:18;;;;;;;10.80;4.47;;;;;;;;;;4982672;28;20502;-73
2022/02/18 12:29:44;;;;;;;14.57;3.88;;;;;;;;;;4989179;28;20037;-72
2022/02/18 12:32:10;;;;;;;12.85;3.75;;;;;;;;;;5002612;28;20046;-73
2022/02/18 12:34:38;;;;;;;11.70;4.30;;;;;;;;;;4978548;28;20027;-73
2022/02/18 12:37:05;;;;;;;28.77;11.18;;;;;;;;;;4981985;28;20050;-72
2022/02/18 12:39:44;;;;;;;15.10;5.93;;;;;;;;;;4970162;28;20026;-72
2022/02/18 12:42:15;;;;;;;30.60;11.77;;;;;;;;;;4984846;28;20019;-73
2022/02/18 12:44:51;;;;;;;39.85;15.98;;;;;;;;;;4985139;28;20010;-73
2022/02/18 12:47:28;;;;;;;27.95;10.23;;;;;;;;;;4962633;28;20031;-74
2022/02/18 12:49:56;;;;;;;17.00;6.07;;;;;;;;;;4968715;28;20048;-75
2022/02/18 12:52:25;;;;;;;10.73;4.72;;;;;;;;;;4985253;28;20054;-73
2022/02/18 12:54:53;;;;;;;15.90;6.25;;;;;;;;;;4979338;28;20031;-78
2022/02/18 12:57:21;;;;;;;27.67;11.98;;;;;;;;;;4974701;28;20121;-76
2022/02/18 12:59:49;;;;;;;21.52;9.13;;;;;;;;;;4969765;28;20078;-76
2022/02/18 13:02:33;;;;;;;16.67;7.22;;;;;;;;;;4976658;28;20478;-76
2022/02/18 13:05:04;;;;;;;20.25;9.77;;;;;;;;;;4964038;28;20568;-77
2022/02/18 13:07:33;;;;;;;25.02;10.77;;;;;;;;;;4976662;28;20023;-76
2022/02/18 13:09:59;;;;;;;19.42;9.60;;;;;;;;;;4964091;28;20027;-77
2022/02/18 13:12:25;;;;;;;17.05;5.43;;;;;;;;;;4946986;28;20022;-77
2022/02/18 13:15:03;;;;;;;17.33;4.78;;;;;;;;;;4972684;28;20099;-76
2022/02/18 13:17:29;;;;;;;12.88;4.43;;;;;;;;;;4964863;28;20038;-75
2022/02/18 13:19:55;;;;;;;13.05;4.93;;;;;;;;;;4948056;28;20029;-75
2022/02/18 13:22:21;;;;;;;12.57;4.97;;;;;;;;;;4976348;28;20034;-75
2022/02/18 13:24:47;;;;;;;12.10;4.57;;;;;;;;;;4973995;28;20493;-76
2022/02/18 13:27:14;;;;;;;19.13;7.55;;;;;;;;;;4952497;28;20038;-75
2022/02/18 13:29:44;;;;;;;14.77;7.35;;;;;;;;;;4968268;28;20097;-76
2022/02/18 13:32:22;;;;;;;18.23;4.20;;;;;;;;;;4964285;28;20188;-75
2022/02/18 13:34:49;;;;;;;12.27;5.05;;;;;;;;;;4972927;28;20041;-77
2022/02/18 13:37:18;;;;;;;22.13;6.05;;;;;;;;;;4972329;28;20031;-76
2022/02/18 13:39:46;;;;;;;22.58;6.05;;;;;;;;;;4963341;28;20090;-76
2022/02/18 13:42:12;;;;;;;18.45;5.53;;;;;;;;;;4955077;28;20092;-76
2022/02/18 13:44:38;;;;;;;10.65;3.97;;;;;;;;;;4952625;28;20042;-75
2022/02/18 13:47:06;;;;;;;8.85;3.88;;;;;;;;;;4977979;28;20022;-75
2022/02/18 13:49:32;;;;;;;16.17;4.85;;;;;;;;;;4970158;28;20024;-76
2022/02/18 13:51:59;;;;;;;14.00;6.13;;;;;;;;;;4960717;28;20038;-76
2022/02/18 13:54:29;;;;;;;9.93;3.50;;;;;;;;;;4989448;28;20026;-77
2022/02/18 13:57:29;;;;;;;16.77;6.40;;;;;;;;;;4991490;28;20050;-71
2022/02/18 14:00:33;;;;;;;13.20;4.45;;;;;;;;;;4913547;29;20149;-75
2022/02/18 14:03:03;;;;;;;14.50;6.40;;;;;;;;;;4915745;29;20106;-75
2022/02/18 14:05:29;;;;;;;17.92;6.00;;;;;;;;;;4914919;29;20151;-73
2022/02/18 14:08:04;;;;;;;20.83;5.28;;;;;;;;;;4903827;29;20035;-73
2022/02/18 14:10:38;;;;;;;18.40;5.85;;;;;;;;;;4898347;29;20180;-73
2022/02/18 14:13:04;;;;;;;14.00;4.50;;;;;;;;;;4911638;29;20032;-75
2022/02/18 14:15:34;;;;;;;12.90;4.07;;;;;;;;;;4896882;29;20140;-77
2022/02/18 14:18:07;;;;;;;18.05;4.78;;;;;;;;;;4905886;29;20040;-77
2022/02/18 14:20:33;;;;;;;11.60;4.87;;;;;;;;;;4907427;29;20038;-76
2022/02/18 14:23:02;;;;;;;10.73;5.47;;;;;;;;;;4900435;29;20381;-77
2022/02/18 14:25:34;;;;;;;14.18;4.97;;;;;;;;;;4894891;29;20036;-77
2022/02/18 14:28:11;;;;;;;17.42;4.55;;;;;;;;;;4917647;29;20027;-76
2022/02/18 14:30:44;;;;;;;12.05;4.53;;;;;;;;;;4911224;29;20499;-75
2022/02/18 14:33:20;;;;;;;17.85;5.88;;;;;;;;;;4905886;29;20035;-74
2022/02/18 14:35:46;;;;;;;13.98;4.60;;;;;;;;;;4909206;29;20583;-76
2022/02/18 14:38:13;;;;;;;16.88;5.07;;;;;;;;;;4964576;28;20059;-74
2022/02/18 14:40:40;;;;;;;13.98;4.38;;;;;;;;;;4951976;28;20607;-74
2022/02/18 14:43:06;;;;;;;13.25;4.60;;;;;;;;;;4974723;28;20028;-75
2022/02/18 14:45:33;;;;;;;14.88;4.05;;;;;;;;;;4973523;28;20021;-76
2022/02/18 14:48:02;;;;;;;12.30;4.40;;;;;;;;;;4970342;28;20027;-75
2022/02/18 14:50:30;;;;;;;11.02;4.15;;;;;;;;;;4975034;28;20030;-74
2022/02/18 14:52:56;;;;;;;16.45;5.30;;;;;;;;;;4981110;28;20031;-75
2022/02/18 14:55:22;;;;;;;17.10;5.28;;;;;;;;;;4941961;28;20019;-73
2022/02/18 14:57:49;;;;;;;17.08;8.18;;;;;;;;;;4941162;28;20039;-75
2022/02/18 15:00:15;;;;;;;13.00;4.95;;;;;;;;;;4979588;28;20079;-75
2022/02/18 15:02:41;;;;;;;24.67;6.78;;;;;;;;;;4980229;28;20055;-74
2022/02/18 15:05:07;;;;;;;17.92;8.35;;;;;;;;;;4970058;28;20081;-74
2022/02/18 15:07:34;;;;;;;18.63;6.18;;;;;;;;;;4963088;28;20027;-73
2022/02/18 15:10:00;;;;;;;66.85;8.00;;;;;;;;;;4968033;28;20030;-75
2022/02/18 15:12:26;;;;;;;35.20;7.75;;;;;;;;;;4965420;28;20023;-73
2022/02/18 15:14:52;;;;;;;14.13;5.50;;;;;;;;;;4967194;28;20027;-75
2022/02/18 15:17:19;;;;;;;16.73;4.78;;;;;;;;;;4971974;28;20053;-75
2022/02/18 15:19:46;;;;;;;14.20;5.78;;;;;;;;;;4969370;28;20020;-77
2022/02/18 15:22:13;;;;;;;13.98;5.45;;;;;;;;;;4960224;28;20476;-75
2022/02/18 15:24:40;;;;;;;11.65;4.90;;;;;;;;;;4974663;28;20039;-75
2022/02/18 15:27:09;;;;;;;17.58;5.30;;;;;;;;;;4966969;28;20523;-77
2022/02/18 15:35:05;;;;;;;14.73;6.22;;;;;;;;;;4962258;28;20034;-74
2022/02/18 15:37:31;;;;;;;20.65;7.20;;;;;;;;;;4977200;28;20493;-77
2022/02/18 15:42:45;;;;;;;14.75;6.72;;;;;;;;;;4973852;28;20050;-75
2022/02/18 15:45:18;;;;;;;15.82;7.18;;;;;;;;;;4967528;28;20465;-74
2022/02/18 15:48:00;;;;;;;16.38;6.38;;;;;;;;;;4983403;28;20042;-77
2022/02/18 15:50:26;;;;;;;17.75;5.32;;;;;;;;;;4969850;28;20679;-75
2022/02/18 15:52:52;;;;;;;17.67;9.57;;;;;;;;;;4971630;28;20035;-75
2022/02/18 15:55:19;;;;;;;12.30;6.32;;;;;;;;;;4962000;28;20027;-77
2022/02/18 15:57:47;;;;;;;10.45;4.72;;;;;;;;;;4984170;28;20042;-77
2022/02/18 16:00:14;;;;;;;14.30;5.60;;;;;;;;;;4959123;28;20070;-76